Terminal Aerodrome Forecast
Issued by NWS

Home | Current Version | Previous Version | Text Only | Print | Product List | Glossary On
Versions: 1 2 3 4 5 6 7 8 9 10 11 12 13 14 15 16 17 18 19 20 21 22 23 24 25
581
FTUS43 KSGF 191155 CCA
TAFJLN
TAF COR
KJLN 191155Z 1912/2012 16004KT 3SM BR SKC
      TEMPO 1912/1914 3/4SM BR
     FM191530 17010KT P6SM BKN030
     FM200400 15009KT 4SM BR OVC025 WS020/19040KT=

USA.gov is the U.S. government's official web portal to all federal, state and local government web resources and services.